Map

Track Data

SID SEASON NUMBER BASIN SUBBASIN NAME ISO_TIME NATURE LAT LON WMO_WIND WMO_PRES WMO_AGENCY TRACK_TYPE DIST2LAND LANDFALL IFLAG USA_AGENCY USA_ATCF_ID USA_LAT USA_LON USA_RECORD USA_STATUS USA_WIND USA_PRES USA_SSHS USA_R34_NE USA_R34_SE USA_R34_SW USA_R34_NW USA_R50_NE USA_R50_SE USA_R50_SW USA_R50_NW USA_R64_NE USA_R64_SE USA_R64_SW USA_R64_NW USA_POCI USA_ROCI USA_RMW USA_EYE TOKYO_LAT TOKYO_LON TOKYO_GRADE TOKYO_WIND TOKYO_PRES TOKYO_R50_DIR TOKYO_R50_LONG TOKYO_R50_SHORT TOKYO_R30_DIR TOKYO_R30_LONG TOKYO_R30_SHORT TOKYO_LAND CMA_LAT CMA_LON CMA_CAT CMA_WIND CMA_PRES HKO_LAT HKO_LON HKO_CAT HKO_WIND HKO_PRES NEWDELHI_LAT NEWDELHI_LON NEWDELHI_GRADE NEWDELHI_WIND NEWDELHI_PRES NEWDELHI_CI NEWDELHI_DP NEWDELHI_POCI REUNION_LAT REUNION_LON REUNION_TYPE REUNION_WIND REUNION_PRES REUNION_TNUM REUNION_CI REUNION_RMW REUNION_R34_NE REUNION_R34_SE REUNION_R34_SW REUNION_R34_NW REUNION_R50_NE REUNION_R50_SE REUNION_R50_SW REUNION_R50_NW REUNION_R64_NE REUNION_R64_SE REUNION_R64_SW REUNION_R64_NW BOM_LAT BOM_LON BOM_TYPE BOM_WIND BOM_PRES BOM_TNUM BOM_CI BOM_RMW BOM_R34_NE BOM_R34_SE BOM_R34_SW BOM_R34_NW BOM_R50_NE BOM_R50_SE BOM_R50_SW BOM_R50_NW BOM_R64_NE BOM_R64_SE BOM_R64_SW BOM_R64_NW BOM_ROCI BOM_POCI BOM_EYE BOM_POS_METHOD BOM_PRES_METHOD NADI_LAT NADI_LON NADI_CAT NADI_WIND NADI_PRES WELLINGTON_LAT WELLINGTON_LON WELLINGTON_WIND WELLINGTON_PRES DS824_LAT DS824_LON DS824_STAGE DS824_WIND DS824_PRES TD9636_LAT TD9636_LON TD9636_STAGE TD9636_WIND TD9636_PRES TD9635_LAT TD9635_LON TD9635_WIND TD9635_PRES TD9635_ROCI NEUMANN_LAT NEUMANN_LON NEUMANN_CLASS NEUMANN_WIND NEUMANN_PRES MLC_LAT MLC_LON MLC_CLASS MLC_WIND MLC_PRES USA_GUST BOM_GUST BOM_GUST_PER REUNION_GUST REUNION_GUST_PER USA_SEAHGT USA_SEARAD_NE USA_SEARAD_SE USA_SEARAD_SW USA_SEARAD_NW STORM_SPEED STORM_DIR
1911193N16133 1911 42 WP MM NOT_NAMED 1911-07-11 16:00:00 NR 16.0000 132.800 main 895 895 __________O___ -1 16.0000 132.800 7 1 277
1911193N16133 1911 42 WP MM NOT_NAMED 1911-07-11 18:00:00 NR 16.0050 132.755 main 895 876 __________P___ -1 16.0050 132.755 7 2 277
1911193N16133 1911 42 WP MM NOT_NAMED 1911-07-11 21:00:00 NR 16.0169 132.647 main 876 857 __________P___ -1 16.0169 132.647 7 3 277
1911193N16133 1911 42 WP MM NOT_NAMED 1911-07-12 00:00:00 NR 16.0402 132.439 main 857 835 __________P___ -1 16.0402 132.439 7 6 277
1911193N16133 1911 42 WP MM NOT_NAMED 1911-07-12 03:00:00 NR 16.0813 132.070 main 835 816 __________P___ -1 16.0813 132.070 7 8 277
1911193N16133 1911 42 WP MM NOT_NAMED 1911-07-12 04:00:00 NR 16.1000 131.900 main 816 780 __________O___ -1 16.1000 131.900 7 11 277
1911193N16133 1911 42 WP MM NOT_NAMED 1911-07-12 06:00:00 NR 16.1455 131.485 main 780 717 __________P___ -1 16.1455 131.485 7 14 277
1911193N16133 1911 42 WP MM NOT_NAMED 1911-07-12 09:00:00 NR 16.2320 130.717 main 717 648 __________P___ -1 16.2320 130.717 7 16 277
1911193N16133 1911 42 WP MM NOT_NAMED 1911-07-12 12:00:00 NR 16.3367 129.852 main 648 567 __________P___ -1 16.3367 129.852 7 17 278
1911193N16133 1911 42 WP MM NOT_NAMED 1911-07-12 15:00:00 NR 16.4568 128.978 main 573 545 __________P___ -1 16.4568 128.978 7 17 278
1911193N16133 1911 42 WP MM NOT_NAMED 1911-07-12 16:00:00 NR 16.5000 128.700 main 545 507 __________O___ -1 16.5000 128.700 7 15 280
1911193N16133 1911 42 WP MM NOT_NAMED 1911-07-12 18:00:00 NR 16.5934 128.196 main 507 456 __________P___ -1 16.5934 128.196 7 14 282
1911193N16133 1911 42 WP MM NOT_NAMED 1911-07-12 21:00:00 NR 16.7468 127.470 main 456 420 __________P___ -1 16.7468 127.470 7 14 283
1911193N16133 1911 42 WP MM NOT_NAMED 1911-07-13 00:00:00 NR 16.9047 126.794 main 420 392 __________P___ -1 16.9047 126.794 7 13 284
1911193N16133 1911 42 WP MM NOT_NAMED 1911-07-13 03:00:00 NR 17.0542 126.185 main 393 372 __________P___ -1 17.0542 126.185 7 12 284
1911193N16133 1911 42 WP MM NOT_NAMED 1911-07-13 04:00:00 NR 17.1000 126.000 main 372 340 __________O___ -1 17.1000 126.000 3 10 283
1911193N16133 1911 42 WP MM NOT_NAMED 1911-07-13 06:00:00 NR 17.1719 125.659 main 340 288 __________P___ -1 17.1719 125.659 3 9 283
1911193N16133 1911 42 WP MM NOT_NAMED 1911-07-13 09:00:00 NR 17.2679 125.211 main 288 248 __________P___ -1 17.2679 125.211 3 8 283
1911193N16133 1911 42 WP MM NOT_NAMED 1911-07-13 12:00:00 NR 17.3605 124.812 main 248 209 __________P___ -1 17.3605 124.812 3 8 285
1911193N16133 1911 42 WP MM NOT_NAMED 1911-07-13 15:00:00 NR 17.4621 124.429 main 209 199 __________P___ -1 17.4621 124.429 3 8 286
1911193N16133 1911 42 WP MM NOT_NAMED 1911-07-13 16:00:00 NR 17.5000 124.300 main 199 172 __________O___ -1 17.5000 124.300 4 9 288
1911193N16133 1911 42 WP MM NOT_NAMED 1911-07-13 18:00:00 NR 17.5939 123.998 main 172 124 __________P___ -1 17.5939 123.998 4 9 289
1911193N16133 1911 42 WP MM NOT_NAMED 1911-07-13 21:00:00 NR 17.7475 123.546 main 124 95 __________P___ -1 17.7475 123.546 4 9 290
1911193N16133 1911 42 WP MM NOT_NAMED 1911-07-14 00:00:00 NR 17.9051 123.112 main 95 47 __________P___ -1 17.9051 123.112 4 8 291
1911193N16133 1911 42 WP MM NOT_NAMED 1911-07-14 03:00:00 NR 18.0543 122.718 main 47 38 __________P___ -1 18.0543 122.718 4 8 292
1911193N16133 1911 42 WP MM NOT_NAMED 1911-07-14 04:00:00 NR 18.1000 122.600 main 38 15 __________O___ -1 18.1000 122.600 4 7 291
1911193N16133 1911 42 WP MM NOT_NAMED 1911-07-14 06:00:00 NR 18.1752 122.383 main 15 0 __________P___ -1 18.1752 122.383 4 6 290
1911193N16133 1911 42 WP MM NOT_NAMED 1911-07-14 09:00:00 NR 18.2755 122.101 main 0 0 __________P___ -1 18.2755 122.101 4 5 292
1911193N16133 1911 42 WP MM NOT_NAMED 1911-07-14 12:00:00 NR 18.3693 121.863 main 11 10 __________P___ -1 18.3693 121.863 4 5 295
1911193N16133 1911 42 WP MM NOT_NAMED 1911-07-14 15:00:00 NR 18.4657 121.661 main 15 11 __________P___ -1 18.4657 121.661 4 4 298
1911193N16133 1911 42 WP MM NOT_NAMED 1911-07-14 16:00:00 NR 18.5000 121.600 main 11 10 __________O___ -1 18.5000 121.600 4 4 299
1911193N16133 1911 42 WP MM NOT_NAMED 1911-07-14 18:00:00 NR 18.5564 121.490 main 15 11 __________P___ -1 18.5564 121.490 4 3 302
1911193N16133 1911 42 WP MM NOT_NAMED 1911-07-14 21:00:00 NR 18.6470 121.350 main 11 22 __________P___ -1 18.6470 121.350 4 3 309
1911193N16133 1911 42 WP MM NOT_NAMED 1911-07-15 00:00:00 NR 18.7643 121.217 main 33 30 __________P___ -1 18.7643 121.217 4 4 316
1911193N16133 1911 42 WP MM NOT_NAMED 1911-07-15 03:00:00 NR 18.9302 121.062 main 39 39 __________P___ -1 18.9302 121.062 4 5 319
1911193N16133 1911 42 WP MM NOT_NAMED 1911-07-15 04:00:00 NR 19.0000 121.000 main 45 45 __________O___ -1 19.0000 121.000 4 7 315
1911193N16133 1911 42 WP MM NOT_NAMED 1911-07-15 06:00:00 NR 19.1660 120.817 main 67 67 __________P___ -1 19.1660 120.817 4 8 315
1911193N16133 1911 42 WP MM NOT_NAMED 1911-07-15 09:00:00 NR 19.4653 120.510 main 105 105 __________P___ -1 19.4653 120.510 4 9 318
1911193N16133 1911 42 WP MM NOT_NAMED 1911-07-15 12:00:00 NR 19.8080 120.208 main 148 148 __________P___ -1 19.8080 120.208 4 9 324
1911193N16133 1911 42 WP MM NOT_NAMED 1911-07-15 15:00:00 NR 20.1753 119.961 main 197 197 __________P___ -1 20.1753 119.961 4 9 330
1911193N16133 1911 42 WP MM NOT_NAMED 1911-07-15 16:00:00 NR 20.3000 119.900 main 197 182 __________O___ -1 20.3000 119.900 4 8 341
1911193N16133 1911 42 WP MM NOT_NAMED 1911-07-15 18:00:00 NR 20.5331 119.831 main 182 145 __________P___ -1 20.5331 119.831 4 7 350
1911193N16133 1911 42 WP MM NOT_NAMED 1911-07-15 21:00:00 NR 20.8955 119.798 main 145 114 __________P___ -1 20.8955 119.798 4 7 359
1911193N16133 1911 42 WP MM NOT_NAMED 1911-07-16 00:00:00 NR 21.2731 119.824 main 114 85 __________P___ -1 21.2731 119.824 4 8 6
1911193N16133 1911 42 WP MM NOT_NAMED 1911-07-16 03:00:00 NR 21.6658 119.880 main 85 83 __________P___ -1 21.6658 119.880 4 8 7
1911193N16133 1911 42 WP MM NOT_NAMED 1911-07-16 04:00:00 NR 21.8000 119.900 main 83 60 __________O___ -1 21.8000 119.900 4 9 7
1911193N16133 1911 42 WP MM NOT_NAMED 1911-07-16 06:00:00 NR 22.0850 119.945 main 60 30 __________P___ -1 22.0850 119.945 4 9 9
1911193N16133 1911 42 WP MM NOT_NAMED 1911-07-16 09:00:00 NR 22.5254 120.026 main 30 10 __________P___ -1 22.5254 120.026 4 9 9
1911193N16133 1911 42 WP MM NOT_NAMED 1911-07-16 12:00:00 NR 22.9619 120.092 main 10 0 __________P___ -1 22.9619 120.092 4 9 5
1911193N16133 1911 42 WP MM NOT_NAMED 1911-07-16 15:00:00 NR 23.3726 120.111 main 10 10 __________P___ -1 23.3726 120.111 4 8 1
1911193N16133 1911 42 WP MM NOT_NAMED 1911-07-16 16:00:00 NR 23.5000 120.100 main 10 0 __________O___ -1 23.5000 120.100 4 7 354
1911193N16133 1911 42 WP MM NOT_NAMED 1911-07-16 18:00:00 NR 23.6994 120.063 main 10 10 __________P___ -1 23.6994 120.063 4 6 344
1911193N16133 1911 42 WP MM NOT_NAMED 1911-07-16 21:00:00 NR 23.9664 119.951 main 30 40 __________P___ -1 23.9664 119.951 4 6 333
1911193N16133 1911 42 WP MM NOT_NAMED 1911-07-17 00:00:00 NR 24.2396 119.767 main 55 60 __________P___ -1 24.2396 119.767 4 7 326
1911193N16133 1911 42 WP MM NOT_NAMED 1911-07-17 03:00:00 NR 24.5690 119.505 main 63 49 __________P___ -1 24.5690 119.505 4 9 324
1911193N16133 1911 42 WP MM NOT_NAMED 1911-07-17 04:00:00 NR 24.7000 119.400 main 49 10 __________O___ -1 24.7000 119.400 4 11 323
1911193N16133 1911 42 WP MM NOT_NAMED 1911-07-17 06:00:00 NR 25.0109 119.141 main 10 0 __________P___ -1 25.0109 119.141 4 13 322
1911193N16133 1911 42 WP MM NOT_NAMED 1911-07-17 09:00:00 NR 25.5460 118.681 main 0 0 __________P___ -1 25.5460 118.681 4 14 323
1911193N16133 1911 42 WP MM NOT_NAMED 1911-07-17 12:00:00 NR 26.1436 118.191 main 0 0 __________P___ -1 26.1436 118.191 4 15 325
1911193N16133 1911 42 WP MM NOT_NAMED 1911-07-17 15:00:00 NR 26.7819 117.734 main 0 0 __________P___ -1 26.7819 117.734 4 15 328
1911193N16133 1911 42 WP MM NOT_NAMED 1911-07-17 16:00:00 NR 27.0000 117.600 main 0 0 __________O___ -1 27.0000 117.600 4 15 334
1911193N16133 1911 42 WP MM NOT_NAMED 1911-07-17 18:00:00 NR 27.4407 117.369 main 0 0 __________P___ -1 27.4407 117.369 4 14 338
1911193N16133 1911 42 WP MM NOT_NAMED 1911-07-17 21:00:00 NR 28.1108 117.103 main 0 0 __________P___ -1 28.1108 117.103 4 14 343
1911193N16133 1911 42 WP MM NOT_NAMED 1911-07-18 00:00:00 NR 28.7890 116.906 main 0 0 __________P___ -1 28.7890 116.906 4 14 347
1911193N16133 1911 42 WP MM NOT_NAMED 1911-07-18 03:00:00 NR 29.4719 116.749 main 0 0 __________P___ -1 29.4719 116.749 4 14 349
1911193N16133 1911 42 WP MM NOT_NAMED 1911-07-18 04:00:00 NR 29.7000 116.700 main 0 __________O___ -1 29.7000 116.700 7 14 351

Digital Typhoon Data and Search

About IBTrACS Database

This database is a web-friendly format of International Best Track Archive for Climate Stewardship (IBTrACS), a global best track data archive curated by NOAA dating back to 1842.

Updated: 2021-10-21